Terminal Aerodrome Forecast
Issued by NWS North Platte, NE

Home | Current Version | Previous Version | Graphics & Text | Print | Product List | Glossary On
Versions: 1 2 3 4 5 6 7 8 9 10 11 12 13
029
FTUS43 KLBF 240520
TAFVTN
TAF
KVTN 240520Z 2406/2506 VRB06KT P6SM FEW250
     FM240800 33007KT P6SM SCT250
     FM241500 35010KT P6SM SCT120 BKN200
     FM241900 32011G19KT P6SM BKN120
     FM250200 29008KT P6SM SCT120 BKN200=

USA.gov is the U.S. government's official web portal to all federal, state and local government web resources and services.